Wetterdaten: Samstag, 02.10.2010
Datum Zeit Temp. A. Feuchte A. Luftdruck Regen Wind Richtung Richtung Sonnenschein UV Solar Windben
02.10.2010 00:00 11,3 C 90 % 1012,4 hPa 0,0 mm 1,6 km/h (1 Bft) O-SO 112 0 min 0 UV-I 0 W/m 8,0 km/h (2 Bft)
02.10.2010 00:10 11,2 C 90 % 1012,3 hPa 0,0 mm 1,6 km/h (1 Bft) O-SO 112 0 min 0 UV-I 0 W/m 8,0 km/h (2 Bft)
02.10.2010 00:20 11,2 C 90 % 1012,1 hPa 0,0 mm 1,6 km/h (1 Bft) O-SO 112 0 min 0 UV-I 0 W/m 6,4 km/h (2 Bft)
02.10.2010 00:30 11,2 C 90 % 1012,1 hPa 0,0 mm 0,0 km/h (0 Bft) O-SO 112 0 min 0 UV-I 0 W/m 4,8 km/h (1 Bft)
02.10.2010 00:40 11,2 C 90 % 1012,1 hPa 0,0 mm 1,6 km/h (1 Bft) O-SO 112 0 min 0 UV-I 0 W/m 8,0 km/h (2 Bft)
02.10.2010 00:50 11,2 C 91 % 1012,1 hPa 0,0 mm 1,6 km/h (1 Bft) O-SO 112 0 min 0 UV-I 0 W/m 8,0 km/h (2 Bft)
02.10.2010 01:00 11,2 C 91 % 1012,0 hPa 0,0 mm 1,6 km/h (1 Bft) O-SO 112 0 min 0 UV-I 0 W/m 6,4 km/h (2 Bft)
02.10.2010 01:10 11,2 C 91 % 1011,9 hPa 0,0 mm 1,6 km/h (1 Bft) O-SO 112 0 min 0 UV-I 0 W/m 6,4 km/h (2 Bft)
02.10.2010 01:20 11,1 C 91 % 1012,0 hPa 0,0 mm 1,6 km/h (1 Bft) O-SO 112 0 min 0 UV-I 0 W/m 11,3 km/h (2 Bft)
02.10.2010 01:30 11,1 C 91 % 1011,9 hPa 0,0 mm 1,6 km/h (1 Bft) O-SO 112 0 min 0 UV-I 0 W/m 8,0 km/h (2 Bft)
02.10.2010 01:40 11,1 C 91 % 1011,8 hPa 0,0 mm 3,2 km/h (1 Bft) O-SO 112 0 min 0 UV-I 0 W/m 9,7 km/h (2 Bft)
02.10.2010 01:50 11,1 C 91 % 1011,7 hPa 0,0 mm 3,2 km/h (1 Bft) O-SO 112 0 min 0 UV-I 0 W/m 9,7 km/h (2 Bft)
02.10.2010 02:00 11,1 C 91 % 1011,7 hPa 0,0 mm 3,2 km/h (1 Bft) O-SO 112 0 min 0 UV-I 0 W/m 9,7 km/h (2 Bft)
02.10.2010 02:10 11,2 C 90 % 1011,6 hPa 0,0 mm 1,6 km/h (1 Bft) O-SO 112 0 min 0 UV-I 0 W/m 6,4 km/h (2 Bft)
02.10.2010 02:20 11,2 C 90 % 1011,6 hPa 0,0 mm 1,6 km/h (1 Bft) O-SO 112 0 min 0 UV-I 0 W/m 9,7 km/h (2 Bft)
02.10.2010 02:30 11,3 C 90 % 1011,5 hPa 0,0 mm 1,6 km/h (1 Bft) O-SO 112 0 min 0 UV-I 0 W/m 6,4 km/h (2 Bft)
02.10.2010 02:40 11,3 C 90 % 1011,5 hPa 0,0 mm 1,6 km/h (1 Bft) O-SO 112 0 min 0 UV-I 0 W/m 9,7 km/h (2 Bft)
02.10.2010 02:50 11,4 C 90 % 1011,5 hPa 0,0 mm 3,2 km/h (1 Bft) O-SO 112 0 min 0 UV-I 0 W/m 14,5 km/h (3 Bft)
02.10.2010 03:00 11,4 C 90 % 1011,4 hPa 0,0 mm 3,2 km/h (1 Bft) SO 135 0 min 0 UV-I 0 W/m 9,7 km/h (2 Bft)
02.10.2010 03:10 11,5 C 90 % 1011,3 hPa 0,0 mm 3,2 km/h (1 Bft) O-SO 112 0 min 0 UV-I 0 W/m 14,5 km/h (3 Bft)
02.10.2010 03:20 11,6 C 89 % 1011,3 hPa 0,0 mm 1,6 km/h (1 Bft) O-SO 112 0 min 0 UV-I 0 W/m 14,5 km/h (3 Bft)
02.10.2010 03:30 11,6 C 89 % 1011,3 hPa 0,0 mm 3,2 km/h (1 Bft) S-SO 157 0 min 0 UV-I 0 W/m 11,3 km/h (2 Bft)
02.10.2010 03:40 11,7 C 89 % 1011,3 hPa 0,0 mm 1,6 km/h (1 Bft) SO 135 0 min 0 UV-I 0 W/m 8,0 km/h (2 Bft)
02.10.2010 03:50 11,7 C 89 % 1011,2 hPa 0,0 mm 1,6 km/h (1 Bft) SO 135 0 min 0 UV-I 0 W/m 8,0 km/h (2 Bft)
02.10.2010 04:00 11,8 C 88 % 1011,1 hPa 0,0 mm 3,2 km/h (1 Bft) SO 135 0 min 0 UV-I 0 W/m 8,0 km/h (2 Bft)
02.10.2010 04:10 11,8 C 88 % 1011,2 hPa 0,0 mm 1,6 km/h (1 Bft) O-SO 112 0 min 0 UV-I 0 W/m 8,0 km/h (2 Bft)
02.10.2010 04:20 11,8 C 88 % 1011,1 hPa 0,0 mm 1,6 km/h (1 Bft) O 90 0 min 0 UV-I 0 W/m 6,4 km/h (2 Bft)
02.10.2010 04:30 11,8 C 87 % 1011,0 hPa 0,0 mm 1,6 km/h (1 Bft) O-SO 112 0 min 0 UV-I 0 W/m 8,0 km/h (2 Bft)
02.10.2010 04:40 11,8 C 87 % 1010,9 hPa 0,0 mm 1,6 km/h (1 Bft) O-SO 112 0 min 0 UV-I 0 W/m 4,8 km/h (1 Bft)
02.10.2010 04:50 11,8 C 87 % 1010,8 hPa 0,0 mm 1,6 km/h (1 Bft) O-SO 112 0 min 0 UV-I 0 W/m 8,0 km/h (2 Bft)
02.10.2010 05:00 11,8 C 87 % 1010,8 hPa 0,0 mm 1,6 km/h (1 Bft) O-SO 112 0 min 0 UV-I 0 W/m 8,0 km/h (2 Bft)
02.10.2010 05:10 11,8 C 87 % 1010,7 hPa 0,0 mm 1,6 km/h (1 Bft) SO 135 0 min 0 UV-I 0 W/m 11,3 km/h (2 Bft)
02.10.2010 05:20 11,8 C 87 % 1010,7 hPa 0,0 mm 3,2 km/h (1 Bft) O-SO 112 0 min 0 UV-I 0 W/m 9,7 km/h (2 Bft)
02.10.2010 05:30 11,8 C 87 % 1010,7 hPa 0,0 mm 3,2 km/h (1 Bft) SO 135 0 min 0 UV-I 0 W/m 9,7 km/h (2 Bft)
02.10.2010 05:40 11,8 C 87 % 1010,7 hPa 0,0 mm 4,8 km/h (1 Bft) O-SO 112 0 min 0 UV-I 0 W/m 17,7 km/h (3 Bft)
02.10.2010 05:50 11,8 C 87 % 1010,7 hPa 0,3 mm 4,8 km/h (1 Bft) O-SO 112 0 min 0 UV-I 0 W/m 14,5 km/h (3 Bft)
02.10.2010 06:00 11,8 C 88 % 1010,7 hPa 0,0 mm 6,4 km/h (2 Bft) SO 135 0 min 0 UV-I 0 W/m 19,3 km/h (3 Bft)
02.10.2010 06:10 11,8 C 88 % 1010,6 hPa 0,0 mm 3,2 km/h (1 Bft) SO 135 0 min 0 UV-I 0 W/m 11,3 km/h (2 Bft)
02.10.2010 06:20 11,7 C 88 % 1010,7 hPa 0,0 mm 3,2 km/h (1 Bft) O 90 0 min 0 UV-I 0 W/m 16,1 km/h (3 Bft)
02.10.2010 06:30 11,7 C 88 % 1010,6 hPa 0,3 mm 3,2 km/h (1 Bft) SO 135 0 min 0 UV-I 0 W/m 9,7 km/h (2 Bft)
02.10.2010 06:40 11,6 C 88 % 1010,6 hPa 0,0 mm 3,2 km/h (1 Bft) O-SO 112 0 min 0 UV-I 0 W/m 14,5 km/h (3 Bft)
02.10.2010 06:50 11,6 C 88 % 1010,7 hPa 0,0 mm 3,2 km/h (1 Bft) O-SO 112 0 min 0 UV-I 0 W/m 11,3 km/h (2 Bft)
02.10.2010 07:00 11,5 C 89 % 1010,6 hPa 0,3 mm 1,6 km/h (1 Bft) O-SO 112 0 min 0 UV-I 0 W/m 11,3 km/h (2 Bft)
02.10.2010 07:10 11,4 C 89 % 1010,6 hPa 0,0 mm 3,2 km/h (1 Bft) O-SO 112 0 min 0 UV-I 0 W/m 8,0 km/h (2 Bft)
02.10.2010 07:20 11,4 C 89 % 1010,6 hPa 0,3 mm 3,2 km/h (1 Bft) O-SO 112 0 min 0 UV-I 0 W/m 11,3 km/h (2 Bft)
02.10.2010 07:30 11,3 C 89 % 1010,5 hPa 0,0 mm 3,2 km/h (1 Bft) O-SO 112 0 min 0 UV-I 0 W/m 12,9 km/h (3 Bft)
02.10.2010 07:40 11,2 C 89 % 1010,6 hPa 0,0 mm 1,6 km/h (1 Bft) O-SO 112 0 min 0 UV-I 0 W/m 11,3 km/h (2 Bft)
02.10.2010 07:50 11,2 C 89 % 1010,5 hPa 0,3 mm 1,6 km/h (1 Bft) O-SO 112 0 min 0 UV-I 0 W/m 6,4 km/h (2 Bft)
02.10.2010 08:00 11,1 C 90 % 1010,5 hPa 0,0 mm 2,1 km/h (1 Bft) O-SO 117 0 min 0 UV-I 7 W/m 6,4 km/h (2 Bft)
02.10.2010 08:10 11,1 C 90 % 1010,5 hPa 0,0 mm 1,6 km/h (1 Bft) O-SO 112 0 min 0 UV-I 7 W/m 8,0 km/h (2 Bft)
02.10.2010 08:20 11,1 C 90 % 1010,5 hPa 0,0 mm 1,6 km/h (1 Bft) O-SO 112 0 min 0 UV-I 14 W/m 9,7 km/h (2 Bft)
02.10.2010 08:30 11,1 C 90 % 1010,5 hPa 0,0 mm 4,8 km/h (1 Bft) O-SO 112 0 min 0 UV-I 18 W/m 14,5 km/h (3 Bft)
02.10.2010 08:40 11,1 C 90 % 1010,5 hPa 0,0 mm 3,2 km/h (1 Bft) O-SO 112 0 min 0 UV-I 21 W/m 17,7 km/h (3 Bft)
02.10.2010 08:50 11,1 C 91 % 1010,5 hPa 0,0 mm 3,2 km/h (1 Bft) O-SO 112 0 min 0 UV-I 33 W/m 8,0 km/h (2 Bft)
02.10.2010 09:00 11,1 C 91 % 1010,6 hPa 0,0 mm 3,2 km/h (1 Bft) S 180 0 min 0 UV-I 35 W/m 11,3 km/h (2 Bft)
02.10.2010 09:10 11,2 C 91 % 1010,7 hPa 0,0 mm 1,6 km/h (1 Bft) O-SO 112 0 min 0 UV-I 30 W/m 11,3 km/h (2 Bft)
02.10.2010 09:20 11,2 C 91 % 1010,8 hPa 0,0 mm 3,2 km/h (1 Bft) O-SO 112 0 min 0 UV-I 44 W/m 14,5 km/h (3 Bft)
02.10.2010 09:30 11,3 C 91 % 1010,8 hPa 0,0 mm 3,2 km/h (1 Bft) SO 135 0 min 0 UV-I 47 W/m 11,3 km/h (2 Bft)
02.10.2010 09:40 11,3 C 91 % 1010,7 hPa 0,0 mm 3,2 km/h (1 Bft) O-SO 112 0 min 0 UV-I 49 W/m 8,0 km/h (2 Bft)
02.10.2010 09:50 11,4 C 91 % 1010,8 hPa 0,0 mm 3,2 km/h (1 Bft) SO 135 0 min 0 UV-I 56 W/m 11,3 km/h (2 Bft)
02.10.2010 10:00 11,5 C 91 % 1010,7 hPa 0,0 mm 1,6 km/h (1 Bft) O-SO 112 0 min 0 UV-I 65 W/m 8,0 km/h (2 Bft)
02.10.2010 10:10 11,6 C 91 % 1010,8 hPa 0,0 mm 3,2 km/h (1 Bft) SO 135 0 min 1 UV-I 72 W/m 11,3 km/h (2 Bft)
02.10.2010 10:20 11,7 C 91 % 1010,8 hPa 0,0 mm 3,2 km/h (1 Bft) SO 135 0 min 1 UV-I 88 W/m 14,5 km/h (3 Bft)
02.10.2010 10:30 11,8 C 91 % 1010,9 hPa 0,0 mm 3,2 km/h (1 Bft) O-SO 112 0 min 1 UV-I 90 W/m 16,1 km/h (3 Bft)
02.10.2010 10:40 12,0 C 91 % 1011,0 hPa 0,0 mm 1,6 km/h (1 Bft) SO 135 0 min 1 UV-I 83 W/m 11,3 km/h (2 Bft)
02.10.2010 10:50 12,2 C 91 % 1011,1 hPa 0,0 mm 1,6 km/h (1 Bft) SO 135 0 min 1 UV-I 97 W/m 9,7 km/h (2 Bft)
02.10.2010 11:00 12,3 C 91 % 1011,1 hPa 0,0 mm 1,6 km/h (1 Bft) S-SW 202 0 min 1 UV-I 113 W/m 9,7 km/h (2 Bft)
02.10.2010 11:10 12,4 C 91 % 1011,1 hPa 0,0 mm 1,6 km/h (1 Bft) S-SW 202 0 min 1 UV-I 107 W/m 6,4 km/h (2 Bft)
02.10.2010 11:20 12,7 C 90 % 1010,9 hPa 0,0 mm 1,6 km/h (1 Bft) SO 135 0 min 1 UV-I 183 W/m 16,1 km/h (3 Bft)
02.10.2010 11:30 12,9 C 90 % 1010,9 hPa 0,0 mm 3,2 km/h (1 Bft) O-SO 112 0 min 1 UV-I 181 W/m 14,5 km/h (3 Bft)
02.10.2010 11:40 13,1 C 90 % 1010,7 hPa 0,0 mm 1,6 km/h (1 Bft) S 180 0 min 2 UV-I 214 W/m 9,7 km/h (2 Bft)
02.10.2010 11:50 13,4 C 88 % 1010,7 hPa 0,0 mm 3,2 km/h (1 Bft) S-SO 157 0 min 2 UV-I 250 W/m 12,9 km/h (3 Bft)
02.10.2010 12:00 14,2 C 84 % 1010,9 hPa 0,0 mm 3,2 km/h (1 Bft) S-SW 202 0 min 2 UV-I 236 W/m 16,1 km/h (3 Bft)
02.10.2010 12:10 14,4 C 84 % 1010,9 hPa 0,0 mm 1,6 km/h (1 Bft) S 180 0 min 2 UV-I 204 W/m 8,0 km/h (2 Bft)
02.10.2010 12:20 14,6 C 82 % 1011,0 hPa 0,0 mm 3,2 km/h (1 Bft) S-SO 157 0 min 2 UV-I 223 W/m 11,3 km/h (2 Bft)
02.10.2010 12:30 14,8 C 82 % 1011,0 hPa 0,0 mm 1,6 km/h (1 Bft) S-SW 202 0 min 2 UV-I 218 W/m 19,3 km/h (3 Bft)
02.10.2010 12:40 15,1 C 82 % 1011,1 hPa 0,0 mm 1,6 km/h (1 Bft) S-SW 202 0 min 2 UV-I 202 W/m 9,7 km/h (2 Bft)
02.10.2010 12:50 15,1 C 81 % 1011,1 hPa 0,0 mm 3,2 km/h (1 Bft) SO 135 0 min 2 UV-I 213 W/m 11,3 km/h (2 Bft)
02.10.2010 13:00 15,3 C 82 % 1011,1 hPa 0,0 mm 1,2 km/h (1 Bft) SO 128 0 min 2 UV-I 220 W/m 6,4 km/h (2 Bft)
02.10.2010 13:10 15,5 C 81 % 1011,1 hPa 0,0 mm 1,8 km/h (1 Bft) S-SO 159 0 min 2 UV-I 238 W/m 11,3 km/h (2 Bft)
02.10.2010 13:20 15,4 C 81 % 1011,1 hPa 0,0 mm 1,6 km/h (1 Bft) S-SO 167 0 min 1 UV-I 171 W/m 8,0 km/h (2 Bft)
02.10.2010 13:30 15,8 C 81 % 1011,1 hPa 0,0 mm 1,9 km/h (1 Bft) S 183 0 min 2 UV-I 273 W/m 11,3 km/h (2 Bft)
02.10.2010 13:40 16,2 C 80 % 1011,1 hPa 0,0 mm 2,0 km/h (1 Bft) S 190 0 min 2 UV-I 282 W/m 11,3 km/h (2 Bft)
02.10.2010 13:50 16,2 C 79 % 1011,1 hPa 0,0 mm 1,9 km/h (1 Bft) O-SO 104 0 min 2 UV-I 243 W/m 9,7 km/h (2 Bft)
02.10.2010 14:00 16,1 C 79 % 1011,1 hPa 0,0 mm 3,1 km/h (1 Bft) S 181 0 min 2 UV-I 231 W/m 14,5 km/h (3 Bft)
02.10.2010 14:10 16,1 C 80 % 1011,2 hPa 0,0 mm 2,3 km/h (1 Bft) S-SO 148 0 min 2 UV-I 230 W/m 16,1 km/h (3 Bft)
02.10.2010 14:20 16,2 C 79 % 1011,2 hPa 0,0 mm 2,6 km/h (1 Bft) SO 143 0 min 2 UV-I 226 W/m 11,3 km/h (2 Bft)
02.10.2010 14:30 16,1 C 80 % 1011,2 hPa 0,0 mm 3,5 km/h (1 Bft) SO 143 0 min 2 UV-I 193 W/m 16,1 km/h (3 Bft)
02.10.2010 14:40 16,2 C 80 % 1011,2 hPa 0,0 mm 1,6 km/h (1 Bft) S-SO 152 0 min 2 UV-I 207 W/m 8,0 km/h (2 Bft)
02.10.2010 14:50 16,3 C 80 % 1011,3 hPa 0,0 mm 2,4 km/h (1 Bft) O 101 0 min 1 UV-I 180 W/m 14,5 km/h (3 Bft)
02.10.2010 15:00 16,3 C 80 % 1011,1 hPa 0,0 mm 2,0 km/h (1 Bft) S-SW 194 0 min 2 UV-I 219 W/m 11,3 km/h (2 Bft)
02.10.2010 15:10 16,7 C 80 % 1011,1 hPa 0,0 mm 1,7 km/h (1 Bft) SO 145 0 min 2 UV-I 252 W/m 6,4 km/h (2 Bft)
02.10.2010 15:20 16,6 C 79 % 1011,1 hPa 0,0 mm 2,6 km/h (1 Bft) SO 146 0 min 1 UV-I 201 W/m 9,7 km/h (2 Bft)
02.10.2010 15:30 16,5 C 78 % 1011,4 hPa 0,0 mm 3,0 km/h (1 Bft) O 96 0 min 1 UV-I 184 W/m 9,7 km/h (2 Bft)
02.10.2010 15:40 16,3 C 80 % 1011,4 hPa 0,0 mm 1,0 km/h (0 Bft) SO 133 0 min 1 UV-I 81 W/m 6,4 km/h (2 Bft)
02.10.2010 15:50 16,2 C 80 % 1011,5 hPa 0,0 mm 3,2 km/h (1 Bft) O-SO 112 0 min 1 UV-I 76 W/m 9,7 km/h (2 Bft)
02.10.2010 16:00 15,9 C 81 % 1011,4 hPa 0,0 mm 3,3 km/h (1 Bft) S-SO 165 0 min 1 UV-I 82 W/m 8,0 km/h (2 Bft)
02.10.2010 16:10 15,9 C 81 % 1011,3 hPa 0,0 mm 3,2 km/h (1 Bft) O-SO 112 10 min 1 UV-I 269 W/m 11,3 km/h (2 Bft)
02.10.2010 16:20 16,3 C 79 % 1011,1 hPa 0,0 mm 4,8 km/h (1 Bft) O-SO 112 10 min 2 UV-I 594 W/m 16,1 km/h (3 Bft)
02.10.2010 16:30 16,9 C 78 % 1011,2 hPa 0,0 mm 4,8 km/h (1 Bft) S-SO 157 10 min 1 UV-I 383 W/m 17,7 km/h (3 Bft)
02.10.2010 16:40 16,4 C 78 % 1011,3 hPa 0,0 mm 3,2 km/h (1 Bft) S-SO 157 10 min 1 UV-I 197 W/m 11,3 km/h (2 Bft)
02.10.2010 16:50 16,0 C 79 % 1011,4 hPa 0,0 mm 3,2 km/h (1 Bft) SO 135 0 min 1 UV-I 137 W/m 17,7 km/h (3 Bft)
02.10.2010 17:00 15,9 C 80 % 1011,3 hPa 0,0 mm 1,6 km/h (1 Bft) SO 135 10 min 1 UV-I 171 W/m 16,1 km/h (3 Bft)
02.10.2010 17:10 15,8 C 81 % 1011,3 hPa 0,0 mm 3,2 km/h (1 Bft) SO 135 0 min 1 UV-I 125 W/m 12,9 km/h (3 Bft)
02.10.2010 17:20 15,6 C 81 % 1011,3 hPa 0,0 mm 3,2 km/h (1 Bft) SO 135 0 min 1 UV-I 95 W/m 11,3 km/h (2 Bft)
02.10.2010 17:30 15,4 C 81 % 1011,3 hPa 0,0 mm 6,4 km/h (2 Bft) O-SO 112 0 min 1 UV-I 81 W/m 16,1 km/h (3 Bft)
02.10.2010 17:40 15,3 C 82 % 1011,3 hPa 0,0 mm 3,2 km/h (1 Bft) O-SO 112 0 min 0 UV-I 63 W/m 14,5 km/h (3 Bft)
02.10.2010 17:50 15,2 C 81 % 1011,4 hPa 0,0 mm 4,8 km/h (1 Bft) S-SO 157 0 min 0 UV-I 58 W/m 14,5 km/h (3 Bft)
02.10.2010 18:00 15,1 C 81 % 1011,3 hPa 0,3 mm 4,8 km/h (1 Bft) O-SO 112 0 min 0 UV-I 53 W/m 16,1 km/h (3 Bft)
02.10.2010 18:10 15,1 C 82 % 1011,3 hPa 0,0 mm 3,2 km/h (1 Bft) SO 135 0 min 0 UV-I 54 W/m 14,5 km/h (3 Bft)
02.10.2010 18:20 15,1 C 82 % 1011,3 hPa 0,0 mm 3,2 km/h (1 Bft) SO 135 10 min 0 UV-I 65 W/m 19,3 km/h (3 Bft)
02.10.2010 18:30 15,0 C 83 % 1011,3 hPa 0,0 mm 4,8 km/h (1 Bft) SO 135 10 min 0 UV-I 42 W/m 14,5 km/h (3 Bft)
02.10.2010 18:40 14,8 C 83 % 1011,4 hPa 0,0 mm 3,2 km/h (1 Bft) O-SO 112 10 min 0 UV-I 33 W/m 11,3 km/h (2 Bft)
02.10.2010 18:50 14,7 C 83 % 1011,6 hPa 0,0 mm 3,2 km/h (1 Bft) SO 135 10 min 0 UV-I 14 W/m 14,5 km/h (3 Bft)
02.10.2010 19:00 14,7 C 84 % 1011,7 hPa 0,0 mm 3,2 km/h (1 Bft) SO 135 0 min 0 UV-I 0 W/m 11,3 km/h (2 Bft)
02.10.2010 19:10 14,6 C 84 % 1011,8 hPa 0,0 mm 4,8 km/h (1 Bft) O-SO 112 0 min 0 UV-I 0 W/m 14,5 km/h (3 Bft)
02.10.2010 19:20 14,4 C 85 % 1011,8 hPa 0,0 mm 3,2 km/h (1 Bft) O-SO 112 0 min 0 UV-I 0 W/m 11,3 km/h (2 Bft)
02.10.2010 19:30 14,4 C 85 % 1011,8 hPa 0,0 mm 4,8 km/h (1 Bft) O-SO 112 0 min 0 UV-I 0 W/m 14,5 km/h (3 Bft)
02.10.2010 19:40 14,3 C 85 % 1011,5 hPa 0,0 mm 4,8 km/h (1 Bft) O-SO 112 0 min 0 UV-I 0 W/m 14,5 km/h (3 Bft)
02.10.2010 19:50 14,2 C 86 % 1011,6 hPa 0,0 mm 3,2 km/h (1 Bft) O-SO 112 0 min 0 UV-I 0 W/m 8,0 km/h (2 Bft)
02.10.2010 20:00 14,2 C 86 % 1011,6 hPa 0,0 mm 4,8 km/h (1 Bft) O-SO 112 0 min 0 UV-I 0 W/m 14,5 km/h (3 Bft)
02.10.2010 20:10 14,1 C 86 % 1011,8 hPa 0,0 mm 3,2 km/h (1 Bft) O-SO 112 0 min 0 UV-I 0 W/m 11,3 km/h (2 Bft)
02.10.2010 20:20 14,1 C 86 % 1011,8 hPa 0,0 mm 1,6 km/h (1 Bft) O-SO 112 0 min 0 UV-I 0 W/m 8,0 km/h (2 Bft)
02.10.2010 20:30 14,1 C 86 % 1011,9 hPa 0,0 mm 0,0 km/h (0 Bft) O 90 0 min 0 UV-I 0 W/m 6,4 km/h (2 Bft)
02.10.2010 20:40 14,0 C 86 % 1012,0 hPa 0,0 mm 1,6 km/h (1 Bft) O-SO 112 0 min 0 UV-I 0 W/m 11,3 km/h (2 Bft)
02.10.2010 20:50 13,9 C 87 % 1011,8 hPa 0,0 mm 1,6 km/h (1 Bft) O-SO 112 0 min 0 UV-I 0 W/m 8,0 km/h (2 Bft)
02.10.2010 21:00 13,8 C 87 % 1012,0 hPa 0,0 mm 1,6 km/h (1 Bft) SO 135 0 min 0 UV-I 0 W/m 8,0 km/h (2 Bft)
02.10.2010 21:10 13,8 C 87 % 1011,8 hPa 0,0 mm 1,6 km/h (1 Bft) O-SO 112 0 min 0 UV-I 0 W/m 6,4 km/h (2 Bft)
02.10.2010 21:20 13,8 C 88 % 1011,6 hPa 0,0 mm 3,2 km/h (1 Bft) O-SO 112 0 min 0 UV-I 0 W/m 11,3 km/h (2 Bft)
02.10.2010 21:30 13,7 C 88 % 1011,3 hPa 0,0 mm 3,2 km/h (1 Bft) O-SO 112 0 min 0 UV-I 0 W/m 9,7 km/h (2 Bft)
02.10.2010 21:40 13,7 C 88 % 1011,4 hPa 0,0 mm 3,2 km/h (1 Bft) O-SO 112 0 min 0 UV-I 0 W/m 11,3 km/h (2 Bft)
02.10.2010 21:50 13,7 C 88 % 1011,5 hPa 0,0 mm 3,2 km/h (1 Bft) O-SO 112 0 min 0 UV-I 0 W/m 9,7 km/h (2 Bft)
02.10.2010 22:00 13,6 C 88 % 1011,3 hPa 0,0 mm 3,2 km/h (1 Bft) O-SO 112 0 min 0 UV-I 0 W/m 8,0 km/h (2 Bft)
02.10.2010 22:10 13,6 C 88 % 1011,4 hPa 0,0 mm 1,6 km/h (1 Bft) S-SO 157 0 min 0 UV-I 0 W/m 9,7 km/h (2 Bft)
02.10.2010 22:20 13,6 C 89 % 1011,3 hPa 0,0 mm 3,2 km/h (1 Bft) SO 135 0 min 0 UV-I 0 W/m 16,1 km/h (3 Bft)
02.10.2010 22:30 13,6 C 89 % 1011,4 hPa 0,0 mm 3,2 km/h (1 Bft) SO 135 0 min 0 UV-I 0 W/m 9,7 km/h (2 Bft)
02.10.2010 22:40 13,6 C 89 % 1011,5 hPa 0,0 mm 1,6 km/h (1 Bft) O 90 0 min 0 UV-I 0 W/m 6,4 km/h (2 Bft)
02.10.2010 22:50 13,6 C 89 % 1011,4 hPa 0,0 mm 1,6 km/h (1 Bft) O-SO 112 0 min 0 UV-I 0 W/m 6,4 km/h (2 Bft)
02.10.2010 23:00 13,6 C 89 % 1011,6 hPa 0,0 mm 0,0 km/h (0 Bft) SO 135 0 min 0 UV-I 0 W/m 3,2 km/h (1 Bft)
02.10.2010 23:10 13,6 C 89 % 1011,4 hPa 0,0 mm 0,0 km/h (0 Bft) O-SO 112 0 min 0 UV-I 0 W/m 3,2 km/h (1 Bft)
02.10.2010 23:20 13,6 C 89 % 1011,5 hPa 0,0 mm 1,6 km/h (1 Bft) SO 135 0 min 0 UV-I 0 W/m 6,4 km/h (2 Bft)
02.10.2010 23:30 13,6 C 89 % 1011,6 hPa 0,0 mm 0,0 km/h (0 Bft) SO 135 0 min 0 UV-I 0 W/m 4,8 km/h (1 Bft)
02.10.2010 23:40 13,6 C 90 % 1011,6 hPa 0,0 mm 0,0 km/h (0 Bft) SO 135 0 min 0 UV-I 0 W/m 3,2 km/h (1 Bft)
02.10.2010 23:50 13,7 C 90 % 1011,5 hPa 0,0 mm 0,0 km/h (0 Bft) SO 135 0 min 0 UV-I 0 W/m 4,8 km/h (1 Bft)
_ Min-Zeit 01:20 15:30 07:30 - 00:30 - - - - - 23:00
Minimum _ 11,1 C 78 % 1010,5 hPa - 0,0 km/h (0 Bft) - - - - - 3,2 km/h (1 Bft)
_ Max-Zeit 16:30 00:50 00:00 05:50 06:00 - - 16:10 13:40 16:20 06:00
Maximum _ 17,1 C 91 % 1012,4 hPa 0,3 mm 6,4 km/h
SO (2 Bft)
- - 10 min 2 UV-I 594 W/m 19,3 km/h
S-SO (3 Bft)
Durchschnitt _ 13,2 C 87 % 1011,2 hPa #1,5 mm 2,5 km/h (1 Bft) O-SO - #1:30 h 1 UV-I 143 W/m 10,7 km/h (2 Bft)